This is the latest recevied weather packets stored in our database for station/object KM6YFK-13. If no packets are shown the sender has not sent any weather packets the latest 10 day(s).
| Time | Temp. | Humidity | Pressure | Rain* | Wind** | Luminosity | Snow |
|---|---|---|---|---|---|---|---|
| 1777897407 | 22.22° C | 64% | 1017.4 hPa | 0 mm | - | 251 W/m² | - |
| 1777897107 | 22.22° C | 62% | 1017.4 hPa | 0 mm | - | 148 W/m² | - |
| 1777896808 | 22.78° C | 59% | 1017.4 hPa | 0 mm | - | 67 W/m² | - |
| 1777896508 | 22.78° C | 56% | 1017.4 hPa | 0 mm | - | 208 W/m² | - |
| 1777896207 | 22.22° C | 57% | 1017.3 hPa | 0 mm | - | 191 W/m² | - |
| 1777895907 | 21.67° C | 58% | 1017.2 hPa | 0 mm | - | 159 W/m² | - |
| 1777895608 | 21.67° C | 61% | 1017.3 hPa | 0 mm | - | 142 W/m² | - |
| 1777895308 | 20.56° C | 66% | 1017.3 hPa | 0 mm | - | 127 W/m² | - |
| 1777895007 | 20° C | 70% | 1017.2 hPa | 0 mm | - | 111 W/m² | - |
| 1777894707 | 19.44° C | 76% | 1017.1 hPa | 0 mm | - | 99 W/m² | - |
| 1777894409 | 19.44° C | 77% | 1017.1 hPa | 0 mm | - | 80 W/m² | - |
| 1777894108 | 18.89° C | 77% | 1017.1 hPa | 0 mm | - | 44 W/m² | - |
| 1777893807 | 19.44° C | 77% | 1017.1 hPa | 0 mm | - | 37 W/m² | - |
| 1777893507 | 19.44° C | 77% | 1017 hPa | 0 mm | - | 31 W/m² | - |
| 1777893208 | 19.44° C | 77% | 1016.9 hPa | 0 mm | - | 26 W/m² | - |
| 1777892908 | 19.44° C | 76% | 1016.9 hPa | 0 mm | - | 21 W/m² | - |
| 1777892608 | 19.44° C | 76% | 1016.9 hPa | 0 mm | - | 17 W/m² | - |
| 1777892308 | 19.44° C | 76% | 1016.9 hPa | 0 mm | - | 14 W/m² | - |
| 1777892007 | 20° C | 74% | 1016.8 hPa | 0 mm | - | 10 W/m² | - |
| 1777891708 | 20° C | 74% | 1016.7 hPa | 0 mm | - | 7 W/m² | - |
| 1777891407 | 20° C | 75% | 1016.6 hPa | 0 mm | - | 4 W/m² | - |
| 1777891107 | 20° C | 74% | 1016.6 hPa | 0 mm | - | 2 W/m² | - |
| 1777890807 | 20° C | 74% | 1016.6 hPa | 0 mm | - | 1 W/m² | - |
| 1777890509 | 20° C | 74% | 1016.6 hPa | 0 mm | - | 0 W/m² | - |
| 1777890208 | 20° C | 73% | 1016.6 hPa | 0 mm | - | 0 W/m² | - |
* Rain latest hour (hover to see other rain measurements)
** Current wind speed in m/s (hover to see current wind gust speed)